Time;durP1;ratioP1;P1;durP2;ratioP2;P2;SDS_P1;SDS_P2;PMS_P1;PMS_P2;Temp;Humidity;BMP_temperature;BMP_pressure;BME280_temperature;BME280_humidity;BME280_pressure;Samples;Min_cycle;Max_cycle;Signal;HPM_P1;HPM_P2
2023/08/02 00:02:18;;;;;;;2.55;1.10;;;19.50;99.90;;;;;;5008200;28;20030;-66
2023/08/02 00:04:44;;;;;;;3.08;1.65;;;19.60;99.90;;;;;;5007800;28;20044;-66
2023/08/02 00:07:10;;;;;;;4.40;1.48;;;19.60;99.90;;;;;;5009763;28;20033;-65
2023/08/02 00:09:35;;;;;;;2.70;1.20;;;19.60;99.90;;;;;;4990352;28;20034;-65
2023/08/02 00:12:01;;;;;;;2.42;1.33;;;19.60;99.90;;;;;;5015149;28;20378;-63
2023/08/02 00:14:27;;;;;;;3.70;1.10;;;19.50;99.90;;;;;;5011121;28;20657;-65
2023/08/02 00:16:53;;;;;;;3.38;1.48;;;19.50;99.90;;;;;;5005859;28;20498;-66
2023/08/02 00:19:19;;;;;;;3.45;1.55;;;19.40;99.90;;;;;;5003830;28;20037;-65
2023/08/02 00:21:44;;;;;;;3.85;1.15;;;19.40;99.90;;;;;;5008064;28;20041;-65
2023/08/02 00:24:10;;;;;;;2.90;1.50;;;19.40;99.90;;;;;;5006063;28;20390;-65
2023/08/02 00:26:36;;;;;;;2.35;1.25;;;19.40;99.90;;;;;;5013545;28;20060;-65
2023/08/02 00:29:03;;;;;;;5.45;1.65;;;19.40;99.90;;;;;;4997438;28;20037;-65
2023/08/02 00:31:28;;;;;;;4.47;2.10;;;19.30;99.90;;;;;;4992960;28;20564;-64
2023/08/02 00:33:54;;;;;;;3.78;1.90;;;19.20;99.90;;;;;;4993463;28;20149;-65
2023/08/02 00:36:20;;;;;;;4.90;1.70;;;19.30;99.90;;;;;;5008391;28;20557;-65
2023/08/02 00:38:46;;;;;;;4.18;1.35;;;19.30;99.90;;;;;;4990270;28;20042;-65
2023/08/02 00:42:01;;;;;;;6.07;2.08;;;19.30;99.90;;;;;;4988238;28;20129;-65
2023/08/02 00:44:27;;;;;;;4.30;1.73;;;19.40;99.90;;;;;;5012622;28;20613;-65
2023/08/02 00:46:53;;;;;;;4.03;2.10;;;19.40;99.90;;;;;;5013732;28;20037;-65
2023/08/02 00:49:19;;;;;;;4.72;1.70;;;19.50;99.90;;;;;;5010804;28;20041;-66
2023/08/02 00:51:45;;;;;;;5.13;1.45;;;19.50;99.90;;;;;;4992746;28;20044;-65
2023/08/02 00:54:11;;;;;;;3.78;1.40;;;19.50;99.90;;;;;;4990682;28;20071;-65
2023/08/02 00:56:38;;;;;;;5.13;1.67;;;19.50;99.90;;;;;;4988248;28;20073;-65
2023/08/02 00:59:03;;;;;;;5.85;2.25;;;19.50;99.90;;;;;;4988511;28;20038;-65
2023/08/02 01:01:29;;;;;;;4.82;2.10;;;19.50;99.90;;;;;;4959967;28;20066;-65
2023/08/02 01:03:57;;;;;;;6.40;1.90;;;19.40;99.90;;;;;;4999928;28;20080;-65
2023/08/02 01:06:34;;;;;;;4.57;1.70;;;19.30;99.90;;;;;;5010239;28;20044;-65
2023/08/02 01:09:03;;;;;;;7.28;2.10;;;19.30;99.90;;;;;;4996418;28;20040;-65
2023/08/02 01:11:36;;;;;;;3.30;1.70;;;19.30;99.90;;;;;;5008641;28;20092;-65
2023/08/02 01:14:05;;;;;;;5.40;1.90;;;19.30;99.90;;;;;;5005801;28;20116;-65
2023/08/02 01:16:33;;;;;;;3.03;1.67;;;19.20;99.90;;;;;;5001607;28;20129;-65
2023/08/02 01:19:07;;;;;;;3.20;2.13;;;19.20;99.90;;;;;;4986726;28;20132;-65
2023/08/02 01:21:33;;;;;;;5.00;1.73;;;19.20;99.90;;;;;;4989015;28;20032;-65
2023/08/02 01:24:01;;;;;;;4.38;1.83;;;19.20;99.90;;;;;;4996112;28;20505;-65
2023/08/02 01:26:30;;;;;;;5.10;2.20;;;19.20;99.90;;;;;;5006093;28;20125;-65
2023/08/02 01:29:02;;;;;;;3.60;1.70;;;19.10;99.90;;;;;;4991945;28;20164;-65
2023/08/02 01:31:29;;;;;;;3.85;1.85;;;19.10;99.90;;;;;;4989302;28;20042;-66
2023/08/02 01:33:56;;;;;;;6.03;1.77;;;19.00;99.90;;;;;;4988679;28;20715;-65
2023/08/02 01:36:23;;;;;;;4.75;2.03;;;19.00;99.90;;;;;;5009200;28;20068;-65
2023/08/02 01:38:50;;;;;;;4.22;1.85;;;19.00;99.90;;;;;;4993619;28;20034;-65
2023/08/02 01:41:16;;;;;;;3.67;1.90;;;19.00;99.90;;;;;;4988861;28;20148;-65
2023/08/02 01:43:42;;;;;;;3.33;1.58;;;19.00;99.90;;;;;;5009895;28;20075;-65
2023/08/02 01:46:07;;;;;;;4.03;1.58;;;19.00;99.90;;;;;;5009579;28;20747;-65
2023/08/02 01:48:33;;;;;;;4.70;1.80;;;19.00;99.90;;;;;;4989215;28;20048;-66
2023/08/02 01:50:59;;;;;;;1.70;1.23;;;19.00;99.90;;;;;;5006711;28;20037;-65
2023/08/02 01:53:25;;;;;;;6.15;1.50;;;19.10;99.90;;;;;;5004384;28;20112;-65
2023/08/02 01:55:51;;;;;;;3.47;1.70;;;19.20;99.90;;;;;;5013712;28;20649;-65
2023/08/02 01:58:16;;;;;;;3.67;1.25;;;19.20;99.90;;;;;;4993985;28;20092;-65
2023/08/02 02:00:42;;;;;;;5.20;1.90;;;19.20;99.90;;;;;;4989206;28;20033;-65
2023/08/02 02:03:08;;;;;;;3.72;2.05;;;19.20;99.90;;;;;;4989446;28;20057;-65
2023/08/02 02:05:34;;;;;;;1.77;1.33;;;19.10;99.90;;;;;;4989121;28;20482;-65
2023/08/02 02:08:00;;;;;;;4.57;1.60;;;19.10;99.90;;;;;;5006507;28;20037;-65
2023/08/02 02:10:25;;;;;;;4.43;1.70;;;19.10;99.90;;;;;;5004635;28;20049;-65
2023/08/02 02:12:51;;;;;;;2.33;1.70;;;19.10;99.90;;;;;;4994914;28;20038;-65
2023/08/02 02:15:17;;;;;;;3.25;1.73;;;19.10;99.90;;;;;;5005263;28;20145;-65
2023/08/02 02:17:43;;;;;;;3.08;1.38;;;19.10;99.90;;;;;;4992081;28;20121;-65
2023/08/02 02:20:10;;;;;;;5.63;1.70;;;19.10;99.90;;;;;;4992240;28;20033;-65
2023/08/02 02:22:37;;;;;;;3.65;1.67;;;19.10;99.90;;;;;;5007505;28;20044;-65
2023/08/02 02:25:03;;;;;;;3.10;1.48;;;19.10;99.90;;;;;;4986957;28;20120;-65
2023/08/02 02:27:28;;;;;;;2.10;1.48;;;19.20;99.90;;;;;;4987408;28;20030;-65
2023/08/02 02:29:54;;;;;;;2.75;1.45;;;19.10;99.90;;;;;;5010452;28;20387;-65
2023/08/02 02:32:20;;;;;;;1.58;1.48;;;19.10;99.90;;;;;;5011818;28;20462;-65
2023/08/02 02:34:45;;;;;;;4.15;1.50;;;19.10;99.90;;;;;;5010948;28;20570;-65
2023/08/02 02:37:11;;;;;;;3.25;1.45;;;19.10;99.90;;;;;;4991825;28;20083;-65
2023/08/02 02:39:37;;;;;;;1.92;1.33;;;19.00;99.90;;;;;;5007510;28;20093;-64
2023/08/02 02:42:03;;;;;;;3.38;1.60;;;19.00;99.90;;;;;;5004679;28;20029;-65
2023/08/02 02:44:42;;;;;;;2.70;1.40;;;19.00;99.90;;;;;;5005172;28;20594;-65
2023/08/02 02:47:09;;;;;;;3.53;1.67;;;19.00;99.90;;;;;;5007472;28;20045;-66
2023/08/02 02:49:35;;;;;;;2.10;1.30;;;19.00;99.90;;;;;;5010808;28;20117;-65
2023/08/02 02:52:01;;;;;;;4.53;1.50;;;18.90;99.90;;;;;;5012586;28;20124;-65
2023/08/02 02:54:27;;;;;;;4.03;1.67;;;18.90;99.90;;;;;;4990818;28;20037;-66
2023/08/02 02:56:52;;;;;;;2.33;1.40;;;18.90;99.90;;;;;;5009350;28;20022;-65
2023/08/02 02:59:18;;;;;;;4.72;1.92;;;18.90;99.90;;;;;;4988615;28;20038;-65
2023/08/02 03:01:45;;;;;;;3.72;1.30;;;19.00;99.90;;;;;;5005791;28;20053;-65
2023/08/02 03:04:10;;;;;;;4.68;1.70;;;19.00;99.90;;;;;;5003648;28;20033;-66
2023/08/02 03:06:36;;;;;;;6.15;1.60;;;19.00;99.90;;;;;;5011329;28;20213;-65
2023/08/02 03:09:02;;;;;;;4.55;1.80;;;18.90;99.90;;;;;;5003241;28;20595;-65
2023/08/02 03:11:28;;;;;;;5.47;1.67;;;18.80;99.90;;;;;;5009130;28;20103;-65
2023/08/02 03:13:54;;;;;;;4.20;1.85;;;18.70;99.90;;;;;;5009208;28;20026;-65
2023/08/02 03:16:19;;;;;;;2.80;1.90;;;18.70;99.90;;;;;;5001239;28;20225;-65
2023/08/02 03:18:45;;;;;;;3.40;1.50;;;18.70;99.90;;;;;;5007574;28;20171;-65
2023/08/02 03:21:11;;;;;;;4.65;1.67;;;18.70;99.90;;;;;;5007844;28;20069;-65
2023/08/02 03:23:36;;;;;;;7.35;1.85;;;18.60;99.90;;;;;;5014402;28;20049;-65
2023/08/02 03:26:02;;;;;;;4.25;1.63;;;18.50;99.90;;;;;;5009966;28;20026;-65
2023/08/02 03:28:28;;;;;;;2.60;1.63;;;18.40;99.90;;;;;;5012150;28;20585;-65
2023/08/02 03:30:54;;;;;;;2.85;1.70;;;18.50;99.90;;;;;;5013107;28;20041;-66
2023/08/02 03:33:20;;;;;;;3.47;1.90;;;18.50;99.90;;;;;;5009702;28;20081;-65
2023/08/02 03:35:46;;;;;;;4.72;1.92;;;18.50;99.90;;;;;;5009906;28;20034;-65
2023/08/02 03:38:11;;;;;;;2.97;1.95;;;18.60;99.90;;;;;;4998503;28;20465;-65
2023/08/02 03:40:38;;;;;;;2.42;1.88;;;18.60;99.90;;;;;;5005738;28;20534;-65
2023/08/02 03:43:04;;;;;;;4.65;2.20;;;18.60;99.90;;;;;;5016296;28;20103;-65
2023/08/02 03:45:30;;;;;;;5.32;2.03;;;18.60;99.90;;;;;;5012321;28;20432;-65
2023/08/02 03:47:57;;;;;;;3.92;2.10;;;18.60;99.90;;;;;;5013962;28;20116;-65
2023/08/02 03:50:22;;;;;;;2.60;1.80;;;18.60;99.90;;;;;;5010304;28;20490;-65
2023/08/02 03:52:49;;;;;;;4.90;2.08;;;18.60;99.90;;;;;;5009821;28;20045;-65
2023/08/02 03:55:14;;;;;;;6.20;2.00;;;18.50;99.90;;;;;;5007652;28;20038;-65
2023/08/02 03:57:40;;;;;;;3.33;1.92;;;18.50;99.90;;;;;;5006893;28;20065;-65
2023/08/02 04:00:07;;;;;;;3.25;1.70;;;18.50;99.90;;;;;;5016361;28;20038;-65
2023/08/02 04:02:38;;;;;;;5.07;2.17;;;18.70;99.90;;;;;;5012167;28;20042;-65
2023/08/02 04:05:04;;;;;;;5.00;2.45;;;18.70;99.90;;;;;;5010587;28;20028;-66
2023/08/02 04:07:29;;;;;;;3.25;2.03;;;18.80;99.90;;;;;;5006890;28;20540;-65
2023/08/02 04:09:55;;;;;;;4.93;2.08;;;18.80;99.90;;;;;;5011268;28;20607;-65
2023/08/02 04:12:21;;;;;;;3.20;1.80;;;18.80;99.90;;;;;;5000985;28;20046;-65
2023/08/02 04:14:46;;;;;;;3.20;1.88;;;18.80;99.90;;;;;;5006548;28;20501;-65
2023/08/02 04:17:12;;;;;;;2.50;1.58;;;18.80;99.90;;;;;;5012972;28;20103;-65
2023/08/02 04:19:38;;;;;;;4.30;1.90;;;18.70;99.90;;;;;;5012546;28;20474;-65
2023/08/02 04:22:04;;;;;;;2.53;1.63;;;18.50;99.90;;;;;;5013321;28;20833;-65
2023/08/02 04:24:30;;;;;;;3.38;2.13;;;18.50;99.90;;;;;;4992420;28;20405;-65
2023/08/02 04:26:56;;;;;;;6.65;2.20;;;18.70;99.90;;;;;;5010643;28;20030;-65
2023/08/02 04:29:22;;;;;;;3.38;1.75;;;18.70;99.90;;;;;;5007957;28;20485;-65
2023/08/02 04:31:48;;;;;;;4.80;1.77;;;18.80;99.90;;;;;;5007215;28;20865;-65
2023/08/02 04:34:13;;;;;;;4.22;1.70;;;18.80;99.90;;;;;;5013429;28;20037;-65
2023/08/02 04:36:40;;;;;;;2.72;1.80;;;18.80;99.90;;;;;;5011646;28;20041;-65
2023/08/02 04:39:07;;;;;;;3.25;2.00;;;18.80;99.90;;;;;;5013443;28;20449;-65
2023/08/02 04:41:33;;;;;;;3.75;1.85;;;18.70;99.90;;;;;;5009841;28;20113;-65
2023/08/02 04:43:59;;;;;;;5.25;2.00;;;18.80;99.90;;;;;;5010503;28;20037;-65
2023/08/02 04:46:29;;;;;;;3.90;1.70;;;18.80;99.90;;;;;;5007821;28;20048;-65
2023/08/02 04:48:55;;;;;;;3.97;1.58;;;18.80;99.90;;;;;;5006926;28;20038;-65
2023/08/02 04:51:21;;;;;;;7.07;1.75;;;18.80;99.90;;;;;;5009356;28;20755;-65
2023/08/02 04:53:47;;;;;;;5.30;2.10;;;18.70;99.90;;;;;;5013387;28;20033;-65
2023/08/02 04:56:14;;;;;;;7.70;1.90;;;18.70;99.90;;;;;;5012444;28;20799;-65
2023/08/02 04:58:41;;;;;;;2.38;1.80;;;18.70;99.90;;;;;;5010088;28;20042;-65
2023/08/02 05:01:06;;;;;;;3.40;1.70;;;18.80;99.90;;;;;;5009359;28;20049;-65
2023/08/02 05:03:33;;;;;;;5.85;2.10;;;18.90;99.90;;;;;;5007285;28;20049;-65
2023/08/02 05:06:04;;;;;;;3.30;1.77;;;19.00;99.90;;;;;;5007121;28;20021;-65
2023/08/02 05:08:31;;;;;;;2.55;1.58;;;19.00;99.90;;;;;;5005358;28;20038;-65
2023/08/02 05:10:57;;;;;;;5.00;1.77;;;19.00;99.90;;;;;;5015290;28;20033;-65
2023/08/02 05:13:24;;;;;;;3.05;1.63;;;19.10;99.90;;;;;;5011679;28;20049;-65
2023/08/02 05:15:51;;;;;;;3.03;1.45;;;19.00;99.90;;;;;;5009941;28;20037;-65
2023/08/02 05:18:17;;;;;;;2.33;1.52;;;19.00;99.90;;;;;;5004865;28;20430;-65
2023/08/02 05:20:43;;;;;;;2.00;1.75;;;18.90;99.90;;;;;;5008532;28;20038;-65
2023/08/02 05:23:09;;;;;;;3.10;1.63;;;18.90;99.90;;;;;;5006284;28;20486;-65
2023/08/02 05:25:35;;;;;;;4.25;1.52;;;18.90;99.90;;;;;;5005299;28;20029;-65
2023/08/02 05:28:01;;;;;;;3.88;1.63;;;18.90;99.90;;;;;;5011778;28;20128;-65
2023/08/02 05:30:28;;;;;;;2.72;1.40;;;19.00;99.90;;;;;;5011251;28;20203;-65
2023/08/02 05:32:55;;;;;;;3.38;1.50;;;19.00;99.90;;;;;;5010637;28;20048;-65
2023/08/02 05:35:21;;;;;;;3.53;1.40;;;18.90;99.90;;;;;;5004918;28;20660;-65
2023/08/02 05:37:47;;;;;;;2.92;1.38;;;18.80;99.90;;;;;;4999652;28;20807;-65
2023/08/02 05:40:13;;;;;;;2.20;1.42;;;18.70;99.90;;;;;;4997939;28;20037;-65
2023/08/02 05:42:38;;;;;;;1.90;1.30;;;18.70;99.90;;;;;;5005237;28;20112;-65
2023/08/02 05:45:05;;;;;;;4.22;1.42;;;18.90;99.90;;;;;;5012429;28;20536;-65
2023/08/02 05:47:31;;;;;;;1.92;1.50;;;19.10;99.90;;;;;;5007428;28;20029;-65
2023/08/02 05:49:57;;;;;;;3.55;1.50;;;19.10;99.90;;;;;;5012812;28;20038;-65
2023/08/02 05:52:23;;;;;;;2.67;1.58;;;19.30;99.90;;;;;;5008382;28;20034;-65
2023/08/02 05:54:48;;;;;;;4.82;1.60;;;19.20;99.90;;;;;;5009403;28;20033;-65
2023/08/02 05:57:14;;;;;;;2.22;1.60;;;19.10;99.90;;;;;;5006185;28;20521;-65
2023/08/02 05:59:40;;;;;;;3.33;1.50;;;19.00;99.90;;;;;;5005908;28;20054;-65
2023/08/02 06:02:07;;;;;;;3.92;1.50;;;19.10;99.90;;;;;;5008231;28;20072;-64
2023/08/02 06:04:35;;;;;;;7.13;3.95;;;19.00;99.90;;;;;;5010731;28;20665;-66
2023/08/02 06:07:02;;;;;;;6.72;2.75;;;18.80;99.90;;;;;;5011156;28;20752;-66
2023/08/02 06:09:29;;;;;;;11.00;5.93;;;18.60;99.90;;;;;;5004847;28;20032;-66
2023/08/02 06:11:54;;;;;;;11.63;5.03;;;18.70;99.90;;;;;;5009378;28;20034;-66
2023/08/02 06:14:20;;;;;;;7.93;4.13;;;18.70;99.90;;;;;;5006085;28;20579;-66
2023/08/02 06:16:46;;;;;;;9.63;5.38;;;18.90;99.90;;;;;;5001320;28;20065;-66
2023/08/02 06:19:12;;;;;;;16.75;6.88;;;18.90;99.90;;;;;;5003996;28;20104;-66
2023/08/02 06:21:37;;;;;;;10.10;3.97;;;19.00;99.90;;;;;;5011053;28;20044;-66
2023/08/02 06:24:03;;;;;;;4.13;2.00;;;19.20;99.90;;;;;;5012610;28;20026;-65
2023/08/02 06:26:29;;;;;;;5.95;2.35;;;19.10;99.90;;;;;;4999384;28;20084;-66
2023/08/02 06:28:55;;;;;;;6.72;2.95;;;19.20;99.90;;;;;;5009633;28;20512;-65
2023/08/02 06:31:21;;;;;;;7.68;4.15;;;19.20;99.90;;;;;;4988686;28;20030;-66
2023/08/02 06:33:47;;;;;;;5.18;2.75;;;19.10;99.90;;;;;;5004753;28;20109;-66
2023/08/02 06:36:13;;;;;;;3.42;1.83;;;19.00;99.90;;;;;;5003805;28;20113;-67
2023/08/02 06:38:39;;;;;;;4.65;1.63;;;19.20;99.90;;;;;;4969861;28;20029;-66
2023/08/02 06:41:05;;;;;;;6.30;1.90;;;19.50;99.90;;;;;;4998099;28;20548;-66
2023/08/02 06:43:31;;;;;;;5.15;1.58;;;19.50;99.90;;;;;;5008189;28;20038;-67
2023/08/02 06:45:57;;;;;;;5.03;1.52;;;19.40;99.90;;;;;;5009915;28;20144;-67
2023/08/02 06:48:25;;;;;;;3.30;1.80;;;19.40;99.90;;;;;;4988207;28;20115;-67
2023/08/02 06:50:52;;;;;;;5.40;2.00;;;19.40;99.90;;;;;;5006349;28;20034;-65
2023/08/02 06:53:18;;;;;;;2.65;1.50;;;19.40;99.90;;;;;;5002887;28;20049;-67
2023/08/02 06:55:44;;;;;;;4.03;1.60;;;19.60;99.90;;;;;;5005752;28;20780;-66
2023/08/02 06:58:10;;;;;;;3.45;1.90;;;19.80;99.90;;;;;;5016457;28;20037;-66
2023/08/02 07:00:35;;;;;;;3.08;1.40;;;19.90;99.90;;;;;;5012555;28;20053;-66
2023/08/02 07:03:02;;;;;;;3.38;1.25;;;20.00;99.90;;;;;;5013214;28;20082;-66
2023/08/02 07:05:30;;;;;;;6.25;1.60;;;20.10;99.90;;;;;;5010322;28;20091;-66
2023/08/02 07:08:00;;;;;;;2.95;1.52;;;20.10;99.90;;;;;;5010414;28;20069;-66
2023/08/02 07:10:27;;;;;;;7.10;2.70;;;20.00;99.90;;;;;;5007578;28;20038;-66
2023/08/02 07:12:54;;;;;;;12.82;7.60;;;20.00;99.90;;;;;;5009364;28;20041;-67
2023/08/02 07:15:20;;;;;;;8.40;3.90;;;20.10;99.90;;;;;;5017865;28;20115;-67
2023/08/02 07:17:47;;;;;;;6.53;3.53;;;20.30;99.90;;;;;;4995841;28;20414;-67
2023/08/02 07:20:14;;;;;;;3.42;1.92;;;20.50;99.90;;;;;;5012686;28;20847;-67
2023/08/02 07:22:41;;;;;;;4.63;1.30;;;20.50;99.90;;;;;;5006911;28;20489;-66
2023/08/02 07:25:08;;;;;;;8.20;2.63;;;20.60;99.90;;;;;;5009955;28;20041;-63
2023/08/02 07:27:34;;;;;;;3.53;1.65;;;20.60;99.90;;;;;;5008810;28;20026;-66
2023/08/02 07:29:59;;;;;;;4.20;1.40;;;20.60;99.90;;;;;;4989454;28;20523;-67
2023/08/02 07:32:25;;;;;;;5.72;2.08;;;20.60;99.90;;;;;;5009803;28;20044;-67
2023/08/02 07:34:52;;;;;;;4.85;1.75;;;20.70;99.90;;;;;;4997336;28;20069;-66
2023/08/02 07:37:18;;;;;;;3.88;1.52;;;20.80;99.90;;;;;;5006764;28;20053;-67
2023/08/02 07:39:44;;;;;;;2.78;1.70;;;20.80;99.50;;;;;;4997983;28;20041;-67
2023/08/02 07:42:10;;;;;;;4.28;1.35;;;20.90;99.10;;;;;;5009672;28;20076;-67
2023/08/02 07:44:37;;;;;;;6.38;1.35;;;21.00;98.80;;;;;;5007960;28;20486;-67
2023/08/02 07:47:06;;;;;;;5.82;1.88;;;21.20;99.20;;;;;;5002969;28;20034;-67
2023/08/02 07:49:32;;;;;;;3.78;1.30;;;21.10;99.10;;;;;;5013421;28;20111;-66
2023/08/02 07:51:58;;;;;;;3.33;1.20;;;21.10;99.30;;;;;;5015142;28;20517;-66
2023/08/02 07:54:24;;;;;;;5.10;1.35;;;20.90;99.40;;;;;;5011488;28;20042;-66
2023/08/02 07:56:50;;;;;;;2.63;1.33;;;20.90;99.50;;;;;;5001789;28;20092;-67
2023/08/02 07:59:16;;;;;;;2.78;0.95;;;20.90;99.30;;;;;;4998178;28;20042;-67
2023/08/02 08:01:42;;;;;;;3.28;1.10;;;20.90;97.50;;;;;;5008500;28;20117;-67
2023/08/02 08:04:08;;;;;;;4.57;0.98;;;20.90;98.10;;;;;;5000208;28;20080;-66
2023/08/02 08:06:34;;;;;;;4.57;1.20;;;20.80;98.40;;;;;;5002409;28;20029;-67
2023/08/02 08:09:00;;;;;;;2.83;1.20;;;20.70;98.60;;;;;;5015564;28;20539;-67
2023/08/02 08:11:29;;;;;;;3.17;1.23;;;20.80;98.20;;;;;;4992006;28;20030;-67
2023/08/02 08:13:56;;;;;;;1.77;1.25;;;20.70;98.20;;;;;;5009275;28;20025;-67
2023/08/02 08:16:21;;;;;;;4.95;1.23;;;20.80;98.40;;;;;;4986568;28;20045;-67
2023/08/02 08:18:48;;;;;;;2.67;1.30;;;20.90;98.10;;;;;;4994084;28;20030;-67
2023/08/02 08:21:13;;;;;;;3.90;1.30;;;21.00;98.00;;;;;;4993697;28;20045;-65
2023/08/02 08:23:39;;;;;;;3.60;1.60;;;21.00;96.40;;;;;;5002430;28;20038;-66
2023/08/02 08:26:10;;;;;;;3.83;1.27;;;21.00;97.10;;;;;;4998027;28;20068;-67
2023/08/02 08:28:35;;;;;;;3.78;1.10;;;21.10;97.60;;;;;;5010926;28;20026;-66
2023/08/02 08:31:03;;;;;;;4.65;1.05;;;21.20;97.20;;;;;;5012116;28;20036;-67
2023/08/02 08:33:29;;;;;;;3.83;1.38;;;21.20;96.30;;;;;;5009610;28;20048;-66
2023/08/02 08:35:55;;;;;;;2.33;1.00;;;21.30;96.40;;;;;;5009383;28;20038;-66
2023/08/02 08:38:21;;;;;;;3.33;1.00;;;21.30;96.80;;;;;;5006181;28;20046;-66
2023/08/02 08:40:54;;;;;;;3.20;1.00;;;21.40;96.70;;;;;;4987834;28;20072;-66
2023/08/02 08:43:27;;;;;;;3.00;0.93;;;21.40;96.70;;;;;;5012018;28;20044;-67
2023/08/02 08:45:54;;;;;;;4.75;1.27;;;21.50;96.40;;;;;;5005520;28;20029;-67
2023/08/02 08:48:21;;;;;;;2.78;1.08;;;21.50;96.20;;;;;;4998671;28;20116;-67
2023/08/02 08:50:49;;;;;;;3.05;1.20;;;21.50;96.20;;;;;;5010436;28;20037;-67
2023/08/02 08:53:21;;;;;;;4.20;1.33;;;21.40;95.80;;;;;;5007258;28;20038;-67
2023/08/02 08:55:51;;;;;;;2.35;1.02;;;21.30;96.10;;;;;;4987676;28;20042;-67
2023/08/02 08:58:18;;;;;;;2.90;1.10;;;21.20;96.10;;;;;;5001005;28;20073;-67
2023/08/02 09:00:44;;;;;;;2.80;0.95;;;21.30;96.00;;;;;;5012711;28;20080;-66
2023/08/02 09:03:12;;;;;;;8.35;1.30;;;21.30;95.60;;;;;;5013042;28;20038;-66
2023/08/02 09:05:40;;;;;;;3.30;1.40;;;21.40;96.30;;;;;;5010182;28;20044;-68
2023/08/02 09:08:06;;;;;;;3.47;1.10;;;21.50;95.60;;;;;;5010251;28;20025;-65
2023/08/02 09:10:34;;;;;;;1.83;0.90;;;21.50;94.30;;;;;;5007583;28;20516;-62
2023/08/02 09:13:00;;;;;;;3.10;1.08;;;21.50;94.30;;;;;;5007650;28;20417;-65
2023/08/02 09:15:26;;;;;;;2.42;0.88;;;21.50;95.30;;;;;;5004794;28;20041;-66
2023/08/02 09:17:53;;;;;;;2.78;1.00;;;21.60;95.20;;;;;;5006049;28;20045;-65
2023/08/02 09:20:24;;;;;;;3.03;1.30;;;21.60;94.00;;;;;;5012262;28;20045;-64
2023/08/02 09:22:50;;;;;;;2.13;0.77;;;21.60;94.60;;;;;;5010670;28;20033;-65
2023/08/02 09:25:27;;;;;;;3.35;1.20;;;21.60;94.30;;;;;;5009680;28;20032;-66
2023/08/02 09:27:55;;;;;;;2.15;1.08;;;21.70;94.40;;;;;;5007679;28;20088;-66
2023/08/02 09:30:26;;;;;;;4.28;1.30;;;21.80;94.40;;;;;;5006044;28;20048;-65
2023/08/02 09:33:02;;;;;;;1.25;0.90;;;21.90;94.60;;;;;;5005735;28;20041;-66
2023/08/02 09:35:32;;;;;;;4.10;1.33;;;22.10;95.00;;;;;;4996671;28;20042;-65
2023/08/02 09:37:58;;;;;;;3.75;1.35;;;22.30;94.50;;;;;;4999717;28;20037;-65
2023/08/02 09:40:35;;;;;;;6.43;1.40;;;22.30;94.60;;;;;;4993748;28;20038;-65
2023/08/02 09:43:02;;;;;;;2.80;1.10;;;22.30;95.10;;;;;;4996907;28;20029;-65
2023/08/02 09:45:33;;;;;;;3.75;1.10;;;22.40;94.70;;;;;;5006860;28;20042;-65
2023/08/02 09:47:59;;;;;;;1.77;0.90;;;22.20;95.00;;;;;;5007039;28;20033;-66
2023/08/02 09:50:24;;;;;;;2.65;1.20;;;22.10;94.90;;;;;;5004718;28;20077;-64
2023/08/02 09:52:50;;;;;;;2.70;1.45;;;22.20;94.60;;;;;;5005036;28;20061;-65
2023/08/02 09:55:16;;;;;;;3.75;1.35;;;22.30;95.10;;;;;;5004969;28;20038;-66
2023/08/02 09:57:44;;;;;;;3.13;1.10;;;22.40;94.40;;;;;;5008229;28;20045;-66
2023/08/02 10:00:11;;;;;;;4.53;1.38;;;22.50;94.60;;;;;;5009234;28;20500;-66
2023/08/02 10:02:41;;;;;;;2.55;1.10;;;22.50;94.70;;;;;;5007585;28;20041;-65
2023/08/02 10:05:12;;;;;;;2.10;0.90;;;22.50;94.80;;;;;;5007177;28;20038;-65
2023/08/02 10:07:53;;;;;;;2.38;1.30;;;22.60;94.60;;;;;;5004743;28;20112;-65
2023/08/02 10:10:31;;;;;;;3.83;1.58;;;22.70;94.70;;;;;;5004138;28;20091;-65
2023/08/02 10:13:04;;;;;;;3.55;1.35;;;22.70;95.00;;;;;;5013085;28;20573;-65
2023/08/02 10:15:30;;;;;;;3.03;0.95;;;22.70;94.50;;;;;;5000866;28;20463;-65
2023/08/02 10:17:59;;;;;;;4.53;1.83;;;22.80;94.30;;;;;;5010375;28;20158;-65
2023/08/02 10:20:25;;;;;;;2.47;1.77;;;22.70;94.40;;;;;;5007412;28;20038;-63
2023/08/02 10:22:51;;;;;;;4.13;1.75;;;22.50;94.90;;;;;;5006621;28;20608;-64
2023/08/02 10:25:18;;;;;;;3.95;1.00;;;22.50;95.90;;;;;;4991743;28;20084;-64
2023/08/02 10:27:46;;;;;;;2.58;1.10;;;22.50;95.20;;;;;;5001972;28;20030;-64
2023/08/02 10:30:12;;;;;;;2.40;1.30;;;22.40;95.30;;;;;;5016518;28;20044;-64
2023/08/02 10:32:38;;;;;;;4.50;1.23;;;22.30;96.00;;;;;;5008646;28;20117;-64
2023/08/02 10:35:04;;;;;;;1.73;1.23;;;22.50;95.60;;;;;;5011840;28;20663;-64
2023/08/02 10:37:55;;;;;;;5.95;4.03;;;22.70;95.40;;;;;;5008395;28;20033;-64
2023/08/02 10:40:21;;;;;;;1.80;1.50;;;22.90;95.40;;;;;;5009800;28;20668;-64
2023/08/02 10:43:05;;;;;;;4.30;2.95;;;22.90;94.90;;;;;;5008448;28;20025;-64
2023/08/02 10:45:30;;;;;;;3.45;2.05;;;22.70;95.10;;;;;;5007350;28;20045;-64
2023/08/02 10:48:22;;;;;;;1.38;0.80;;;22.70;95.20;;;;;;5017262;28;20478;-64
2023/08/02 10:50:48;;;;;;;4.85;1.67;;;22.60;94.90;;;;;;5011414;28;20764;-67
2023/08/02 10:53:14;;;;;;;4.82;1.35;;;22.40;95.60;;;;;;5007393;28;20042;-65
2023/08/02 10:56:06;;;;;;;4.78;2.20;;;22.40;95.80;;;;;;5011167;28;20033;-65
2023/08/02 10:58:49;;;;;;;2.33;1.52;;;22.30;95.30;;;;;;5007519;28;20053;-65
2023/08/02 11:01:15;;;;;;;3.20;1.50;;;22.20;95.80;;;;;;5008269;28;20038;-65
2023/08/02 11:03:40;;;;;;;2.13;1.35;;;22.30;96.20;;;;;;5012269;28;20037;-65
2023/08/02 11:06:06;;;;;;;3.90;2.08;;;22.20;95.70;;;;;;5020107;28;20040;-65
2023/08/02 11:08:45;;;;;;;3.25;1.63;;;22.10;96.20;;;;;;4997937;28;20482;-65
2023/08/02 11:11:11;;;;;;;4.40;1.98;;;22.20;96.70;;;;;;5013053;28;20049;-65
2023/08/02 11:13:39;;;;;;;3.40;1.77;;;22.30;95.90;;;;;;5007355;28;20042;-64
2023/08/02 11:16:06;;;;;;;2.40;1.80;;;22.40;96.20;;;;;;5002206;28;20030;-65
2023/08/02 11:18:32;;;;;;;3.05;2.00;;;22.40;95.70;;;;;;5009818;28;20079;-65
2023/08/02 11:21:08;;;;;;;3.25;1.50;;;22.40;95.80;;;;;;5009234;28;20033;-65
2023/08/02 11:23:34;;;;;;;2.55;1.70;;;22.40;96.00;;;;;;5009515;28;20051;-65
2023/08/02 11:26:10;;;;;;;2.88;1.55;;;22.40;95.70;;;;;;5015020;28;20753;-65
2023/08/02 11:28:49;;;;;;;4.50;1.50;;;22.40;95.00;;;;;;5010373;28;20040;-65
2023/08/02 11:31:15;;;;;;;3.67;2.05;;;22.30;95.30;;;;;;4991864;28;20041;-65
2023/08/02 11:33:41;;;;;;;2.10;1.63;;;22.20;95.40;;;;;;5009557;28;20401;-64
2023/08/02 11:36:08;;;;;;;4.38;1.52;;;22.10;95.30;;;;;;5007599;28;20147;-65
2023/08/02 11:38:35;;;;;;;3.33;1.85;;;22.10;95.30;;;;;;5005962;28;20041;-65
2023/08/02 11:41:01;;;;;;;4.25;1.80;;;22.20;95.60;;;;;;5016579;28;20041;-65
2023/08/02 11:43:37;;;;;;;3.13;1.58;;;22.20;95.70;;;;;;5007442;28;20033;-65
2023/08/02 11:46:32;;;;;;;3.38;1.60;;;22.40;95.90;;;;;;5008400;28;20028;-65
2023/08/02 11:49:07;;;;;;;4.60;1.75;;;22.50;95.40;;;;;;4989975;28;20045;-65
2023/08/02 11:51:42;;;;;;;3.17;1.52;;;22.50;95.60;;;;;;5008371;28;20032;-65
2023/08/02 11:54:09;;;;;;;2.88;2.03;;;22.40;95.40;;;;;;5006631;28;20038;-65
2023/08/02 11:56:35;;;;;;;3.83;1.98;;;22.40;95.10;;;;;;5005762;28;20520;-64
2023/08/02 11:59:02;;;;;;;5.13;3.60;;;22.30;95.10;;;;;;5015601;28;20025;-62
2023/08/02 12:01:28;;;;;;;5.00;1.90;;;22.20;95.60;;;;;;5011936;28;20064;-64
2023/08/02 12:03:55;;;;;;;6.95;3.00;;;22.30;95.40;;;;;;5012650;28;20629;-65
2023/08/02 12:06:21;;;;;;;6.55;4.10;;;22.20;95.90;;;;;;5009241;28;20034;-65
2023/08/02 12:08:54;;;;;;;5.05;2.45;;;22.10;95.60;;;;;;5009106;28;20065;-65
2023/08/02 12:11:20;;;;;;;2.95;2.05;;;22.30;95.30;;;;;;5007364;28;20084;-65
2023/08/02 12:13:46;;;;;;;3.00;2.17;;;22.30;95.00;;;;;;5006764;28;20058;-65
2023/08/02 12:16:13;;;;;;;4.50;2.45;;;22.40;95.00;;;;;;5010514;28;20141;-65
2023/08/02 12:19:09;;;;;;;3.65;1.92;;;22.40;95.30;;;;;;5009176;28;20030;-65
2023/08/02 12:21:35;;;;;;;3.33;1.63;;;22.50;95.00;;;;;;4996251;28;20049;-65
2023/08/02 12:24:15;;;;;;;4.28;1.92;;;22.50;94.50;;;;;;5009899;28;20106;-65
2023/08/02 12:26:41;;;;;;;5.00;1.90;;;22.30;94.90;;;;;;5007936;28;20599;-65
2023/08/02 12:29:07;;;;;;;2.05;1.77;;;22.30;94.70;;;;;;5010217;28;20037;-65
2023/08/02 12:31:43;;;;;;;3.25;2.20;;;22.30;95.20;;;;;;5004811;28;20026;-65
2023/08/02 12:34:09;;;;;;;4.18;1.80;;;22.40;95.60;;;;;;5011264;28;20040;-65
2023/08/02 12:36:35;;;;;;;4.10;2.35;;;22.40;96.00;;;;;;5010333;28;20113;-65
2023/08/02 12:39:01;;;;;;;4.22;2.05;;;22.40;96.90;;;;;;5011733;28;20032;-65
2023/08/02 12:41:29;;;;;;;4.32;2.05;;;22.20;96.80;;;;;;5005588;28;20151;-65
2023/08/02 12:43:55;;;;;;;10.45;2.60;;;22.10;96.80;;;;;;5007157;28;20034;-64
2023/08/02 12:46:21;;;;;;;3.80;2.80;;;22.00;97.20;;;;;;5004623;28;20033;-65
2023/08/02 12:48:48;;;;;;;5.47;2.80;;;22.00;97.80;;;;;;5004689;28;20030;-65